KPSP

Palm Springs International Airport

Palm Springs, California, USA
METAR KPSP 191653Z 08003KT 10SM CLR 37/14 A2986 RMK AO2 SLP106 T03720144
Observed Flight Rules
Aug-19 @ 16:53 UTC (20 minutes ago) Visual Flight Rules
Wind Visibility Clouds
80° at 3 knots 10 miles
  • Clear skies
Temperatures Readings
Current 37°C / 99°F
Dewpoint 14°C / 57°F
Humidity 25%
Altimeter 29.86" Hg
Pressure 1010.6 hPa
Elevation 135
METAR KPSP 191653Z 08003KT 10SM CLR 37/14 A2986 RMK AO2 SLP106 T03720144
Observed Flight Rules
Aug-19 @ 16:53 UTC
(20 minutes ago)
VFR
Wind Visibility
80° at 3 knots 10 miles
Clouds
  • Clear skies
Temperature Dewpoint
37°C / 99°F 14°C / 57°F
Humidity Altimeter Pressure
25% 29.86" Hg 1010.6 hPa